sensor_id;sensor_type;location;lat;lon;timestamp;temperature;humidity
11284;DHT22;5698;47.332;11.180;2024-01-10T00:01:45;-4.20;99.90
11284;DHT22;5698;47.332;11.180;2024-01-10T00:04:12;-4.20;99.90
11284;DHT22;5698;47.332;11.180;2024-01-10T00:06:42;-4.20;99.90
11284;DHT22;5698;47.332;11.180;2024-01-10T00:09:09;-4.20;99.90
11284;DHT22;5698;47.332;11.180;2024-01-10T00:11:36;-4.20;99.90
11284;DHT22;5698;47.332;11.180;2024-01-10T00:14:03;-4.20;99.90
11284;DHT22;5698;47.332;11.180;2024-01-10T00:16:32;-4.20;99.90
11284;DHT22;5698;47.332;11.180;2024-01-10T00:18:59;-4.20;99.90
11284;DHT22;5698;47.332;11.180;2024-01-10T00:21:26;-4.20;99.90
11284;DHT22;5698;47.332;11.180;2024-01-10T00:23:53;-4.10;99.90
11284;DHT22;5698;47.332;11.180;2024-01-10T00:26:20;-4.10;99.90
11284;DHT22;5698;47.332;11.180;2024-01-10T00:28:47;-4.00;99.90
11284;DHT22;5698;47.332;11.180;2024-01-10T00:31:14;-4.10;99.90
11284;DHT22;5698;47.332;11.180;2024-01-10T00:33:42;-4.00;99.90
11284;DHT22;5698;47.332;11.180;2024-01-10T00:36:09;-4.00;99.90
11284;DHT22;5698;47.332;11.180;2024-01-10T00:38:36;-4.00;99.90
11284;DHT22;5698;47.332;11.180;2024-01-10T00:41:04;-4.00;99.90
11284;DHT22;5698;47.332;11.180;2024-01-10T00:43:31;-4.00;99.90
11284;DHT22;5698;47.332;11.180;2024-01-10T00:45:57;-4.00;99.90
11284;DHT22;5698;47.332;11.180;2024-01-10T00:48:24;-3.90;99.90
11284;DHT22;5698;47.332;11.180;2024-01-10T00:50:53;-3.90;99.90
11284;DHT22;5698;47.332;11.180;2024-01-10T00:53:20;-3.90;99.90
11284;DHT22;5698;47.332;11.180;2024-01-10T00:55:47;-3.90;99.90
11284;DHT22;5698;47.332;11.180;2024-01-10T00:58:14;-3.80;99.90
11284;DHT22;5698;47.332;11.180;2024-01-10T01:00:41;-3.90;99.90
11284;DHT22;5698;47.332;11.180;2024-01-10T01:03:08;-3.90;99.90
11284;DHT22;5698;47.332;11.180;2024-01-10T01:05:35;-3.90;99.90
11284;DHT22;5698;47.332;11.180;2024-01-10T01:08:04;-4.00;99.90
11284;DHT22;5698;47.332;11.180;2024-01-10T01:10:31;-4.00;99.90
11284;DHT22;5698;47.332;11.180;2024-01-10T01:12:58;-4.00;99.90
11284;DHT22;5698;47.332;11.180;2024-01-10T01:15:25;-4.00;99.90
11284;DHT22;5698;47.332;11.180;2024-01-10T01:17:52;-4.00;99.90
11284;DHT22;5698;47.332;11.180;2024-01-10T01:20:19;-3.90;99.90
11284;DHT22;5698;47.332;11.180;2024-01-10T01:22:46;-3.90;99.90
11284;DHT22;5698;47.332;11.180;2024-01-10T01:25:14;-4.00;99.90
11284;DHT22;5698;47.332;11.180;2024-01-10T01:27:41;-4.00;99.90
11284;DHT22;5698;47.332;11.180;2024-01-10T01:30:09;-4.10;99.90
11284;DHT22;5698;47.332;11.180;2024-01-10T01:32:37;-4.00;99.90
11284;DHT22;5698;47.332;11.180;2024-01-10T01:35:04;-3.90;99.90
11284;DHT22;5698;47.332;11.180;2024-01-10T01:37:31;-4.10;99.90
11284;DHT22;5698;47.332;11.180;2024-01-10T01:39:58;-4.10;99.90
11284;DHT22;5698;47.332;11.180;2024-01-10T01:42:27;-4.00;99.90
11284;DHT22;5698;47.332;11.180;2024-01-10T01:44:54;-4.00;99.90
11284;DHT22;5698;47.332;11.180;2024-01-10T01:47:21;-4.00;99.90
11284;DHT22;5698;47.332;11.180;2024-01-10T01:49:48;-4.10;99.90
11284;DHT22;5698;47.332;11.180;2024-01-10T01:52:15;-4.00;99.90
11284;DHT22;5698;47.332;11.180;2024-01-10T01:54:42;-3.90;99.90
11284;DHT22;5698;47.332;11.180;2024-01-10T01:57:09;-4.00;99.90
11284;DHT22;5698;47.332;11.180;2024-01-10T01:59:38;-4.00;99.90
11284;DHT22;5698;47.332;11.180;2024-01-10T02:02:05;-4.00;99.90
11284;DHT22;5698;47.332;11.180;2024-01-10T02:04:32;-3.90;99.90
11284;DHT22;5698;47.332;11.180;2024-01-10T02:06:59;-3.90;99.90
11284;DHT22;5698;47.332;11.180;2024-01-10T02:09:26;-4.00;99.90
11284;DHT22;5698;47.332;11.180;2024-01-10T02:11:53;-3.90;99.90
11284;DHT22;5698;47.332;11.180;2024-01-10T02:14:21;-3.90;99.90
11284;DHT22;5698;47.332;11.180;2024-01-10T02:16:50;-3.90;99.90
11284;DHT22;5698;47.332;11.180;2024-01-10T02:19:21;-4.00;99.90
11284;DHT22;5698;47.332;11.180;2024-01-10T02:21:48;-3.90;99.90
11284;DHT22;5698;47.332;11.180;2024-01-10T02:24:15;-3.90;99.90
11284;DHT22;5698;47.332;11.180;2024-01-10T02:26:44;-3.80;99.90
11284;DHT22;5698;47.332;11.180;2024-01-10T02:29:11;-3.80;99.90
11284;DHT22;5698;47.332;11.180;2024-01-10T02:31:37;-3.90;99.90
11284;DHT22;5698;47.332;11.180;2024-01-10T02:34:04;-3.90;99.90
11284;DHT22;5698;47.332;11.180;2024-01-10T02:36:31;-3.90;99.90
11284;DHT22;5698;47.332;11.180;2024-01-10T02:38:58;-3.80;99.90
11284;DHT22;5698;47.332;11.180;2024-01-10T02:41:25;-3.90;99.90
11284;DHT22;5698;47.332;11.180;2024-01-10T02:43:54;-3.80;99.90
11284;DHT22;5698;47.332;11.180;2024-01-10T02:46:24;-3.90;99.90
11284;DHT22;5698;47.332;11.180;2024-01-10T02:48:53;-3.90;99.90
11284;DHT22;5698;47.332;11.180;2024-01-10T02:51:20;-3.90;99.90
11284;DHT22;5698;47.332;11.180;2024-01-10T02:53:47;-3.80;99.90
11284;DHT22;5698;47.332;11.180;2024-01-10T02:56:14;-3.80;99.90
11284;DHT22;5698;47.332;11.180;2024-01-10T02:58:41;-3.80;99.90
11284;DHT22;5698;47.332;11.180;2024-01-10T03:01:10;-3.80;99.90
11284;DHT22;5698;47.332;11.180;2024-01-10T03:03:36;-3.70;99.90
11284;DHT22;5698;47.332;11.180;2024-01-10T03:06:04;-3.70;99.90
11284;DHT22;5698;47.332;11.180;2024-01-10T03:08:31;-3.70;99.90
11284;DHT22;5698;47.332;11.180;2024-01-10T03:10:57;-3.70;99.90
11284;DHT22;5698;47.332;11.180;2024-01-10T03:13:24;-3.70;99.90
11284;DHT22;5698;47.332;11.180;2024-01-10T03:15:51;-3.60;99.90
11284;DHT22;5698;47.332;11.180;2024-01-10T03:18:20;-3.60;99.90
11284;DHT22;5698;47.332;11.180;2024-01-10T03:20:46;-3.50;99.90
11284;DHT22;5698;47.332;11.180;2024-01-10T03:23:13;-3.50;99.90
11284;DHT22;5698;47.332;11.180;2024-01-10T03:25:40;-3.50;99.90
11284;DHT22;5698;47.332;11.180;2024-01-10T03:28:07;-3.50;99.90
11284;DHT22;5698;47.332;11.180;2024-01-10T03:30:34;-3.50;99.90
11284;DHT22;5698;47.332;11.180;2024-01-10T03:33:01;-3.50;99.90
11284;DHT22;5698;47.332;11.180;2024-01-10T03:35:30;-3.50;99.90
11284;DHT22;5698;47.332;11.180;2024-01-10T03:37:57;-3.50;99.90
11284;DHT22;5698;47.332;11.180;2024-01-10T03:40:24;-3.60;99.90
11284;DHT22;5698;47.332;11.180;2024-01-10T03:42:50;-3.60;99.90
11284;DHT22;5698;47.332;11.180;2024-01-10T03:45:17;-3.60;99.90
11284;DHT22;5698;47.332;11.180;2024-01-10T03:47:46;-3.50;99.90
11284;DHT22;5698;47.332;11.180;2024-01-10T03:50:15;-3.50;99.90
11284;DHT22;5698;47.332;11.180;2024-01-10T03:52:44;-3.40;99.90
11284;DHT22;5698;47.332;11.180;2024-01-10T03:55:12;-3.30;99.90
11284;DHT22;5698;47.332;11.180;2024-01-10T03:57:40;-3.40;99.90
11284;DHT22;5698;47.332;11.180;2024-01-10T04:00:08;-3.40;99.90
11284;DHT22;5698;47.332;11.180;2024-01-10T04:02:37;-3.40;99.90
11284;DHT22;5698;47.332;11.180;2024-01-10T04:05:06;-3.40;99.90
11284;DHT22;5698;47.332;11.180;2024-01-10T04:07:35;-3.40;99.90
11284;DHT22;5698;47.332;11.180;2024-01-10T04:10:05;-3.40;99.90
11284;DHT22;5698;47.332;11.180;2024-01-10T04:12:33;-3.40;99.90
11284;DHT22;5698;47.332;11.180;2024-01-10T04:15:00;-3.40;99.90
11284;DHT22;5698;47.332;11.180;2024-01-10T04:17:27;-3.40;99.90
11284;DHT22;5698;47.332;11.180;2024-01-10T04:19:54;-3.40;99.90
11284;DHT22;5698;47.332;11.180;2024-01-10T04:22:21;-3.40;99.90
11284;DHT22;5698;47.332;11.180;2024-01-10T04:24:48;-3.40;99.90
11284;DHT22;5698;47.332;11.180;2024-01-10T04:27:16;-3.40;99.90
11284;DHT22;5698;47.332;11.180;2024-01-10T04:29:43;-3.40;99.90
11284;DHT22;5698;47.332;11.180;2024-01-10T04:32:10;-3.40;99.90
11284;DHT22;5698;47.332;11.180;2024-01-10T04:34:37;-3.40;99.90
11284;DHT22;5698;47.332;11.180;2024-01-10T04:37:06;-3.40;99.90
11284;DHT22;5698;47.332;11.180;2024-01-10T04:39:34;-3.30;99.90
11284;DHT22;5698;47.332;11.180;2024-01-10T04:42:01;-3.30;99.90
11284;DHT22;5698;47.332;11.180;2024-01-10T04:44:29;-3.30;99.90
11284;DHT22;5698;47.332;11.180;2024-01-10T04:46:56;-3.20;99.90
11284;DHT22;5698;47.332;11.180;2024-01-10T04:49:23;-3.30;99.90
11284;DHT22;5698;47.332;11.180;2024-01-10T04:51:50;-3.30;99.90
11284;DHT22;5698;47.332;11.180;2024-01-10T04:54:17;-3.30;99.90
11284;DHT22;5698;47.332;11.180;2024-01-10T04:56:44;-3.30;99.90
11284;DHT22;5698;47.332;11.180;2024-01-10T04:59:11;-3.30;99.90
11284;DHT22;5698;47.332;11.180;2024-01-10T05:01:40;-3.30;99.90
11284;DHT22;5698;47.332;11.180;2024-01-10T05:04:06;-3.40;99.90
11284;DHT22;5698;47.332;11.180;2024-01-10T05:06:33;-3.50;99.90
11284;DHT22;5698;47.332;11.180;2024-01-10T05:09:00;-3.40;99.90
11284;DHT22;5698;47.332;11.180;2024-01-10T05:11:28;-3.50;99.90
11284;DHT22;5698;47.332;11.180;2024-01-10T05:13:55;-3.50;99.90
11284;DHT22;5698;47.332;11.180;2024-01-10T05:16:22;-3.50;99.90
11284;DHT22;5698;47.332;11.180;2024-01-10T05:18:51;-3.50;99.90
11284;DHT22;5698;47.332;11.180;2024-01-10T05:21:18;-3.60;99.90
11284;DHT22;5698;47.332;11.180;2024-01-10T05:23:45;-3.60;99.90
11284;DHT22;5698;47.332;11.180;2024-01-10T05:26:11;-3.50;99.90
11284;DHT22;5698;47.332;11.180;2024-01-10T05:28:38;-3.50;99.90
11284;DHT22;5698;47.332;11.180;2024-01-10T05:31:05;-3.50;99.90
11284;DHT22;5698;47.332;11.180;2024-01-10T05:33:32;-3.40;99.90
11284;DHT22;5698;47.332;11.180;2024-01-10T05:36:01;-3.50;99.90
11284;DHT22;5698;47.332;11.180;2024-01-10T05:38:28;-3.50;99.90
11284;DHT22;5698;47.332;11.180;2024-01-10T05:40:54;-3.50;99.90
11284;DHT22;5698;47.332;11.180;2024-01-10T05:43:21;-3.50;99.90
11284;DHT22;5698;47.332;11.180;2024-01-10T05:45:49;-3.50;99.90
11284;DHT22;5698;47.332;11.180;2024-01-10T05:48:16;-3.50;99.90
11284;DHT22;5698;47.332;11.180;2024-01-10T05:50:43;-3.40;99.90
11284;DHT22;5698;47.332;11.180;2024-01-10T05:53:12;-3.40;99.90
11284;DHT22;5698;47.332;11.180;2024-01-10T05:55:42;-3.40;99.90
11284;DHT22;5698;47.332;11.180;2024-01-10T05:58:09;-3.40;99.90
11284;DHT22;5698;47.332;11.180;2024-01-10T06:00:36;-3.40;99.90
11284;DHT22;5698;47.332;11.180;2024-01-10T06:03:03;-3.50;99.90
11284;DHT22;5698;47.332;11.180;2024-01-10T06:05:30;-3.50;99.90
11284;DHT22;5698;47.332;11.180;2024-01-10T06:07:57;-3.60;99.90
11284;DHT22;5698;47.332;11.180;2024-01-10T06:10:26;-3.60;99.90
11284;DHT22;5698;47.332;11.180;2024-01-10T06:12:54;-3.60;99.90
11284;DHT22;5698;47.332;11.180;2024-01-10T06:15:21;-3.70;99.90
11284;DHT22;5698;47.332;11.180;2024-01-10T06:17:48;-3.70;99.90
11284;DHT22;5698;47.332;11.180;2024-01-10T06:20:16;-3.80;99.90
11284;DHT22;5698;47.332;11.180;2024-01-10T06:22:43;-3.80;99.90
11284;DHT22;5698;47.332;11.180;2024-01-10T06:25:12;-3.80;99.90
11284;DHT22;5698;47.332;11.180;2024-01-10T06:27:40;-3.80;99.90
11284;DHT22;5698;47.332;11.180;2024-01-10T06:30:08;-3.80;99.90
11284;DHT22;5698;47.332;11.180;2024-01-10T06:32:35;-3.80;99.90
11284;DHT22;5698;47.332;11.180;2024-01-10T06:35:02;-3.80;99.90
11284;DHT22;5698;47.332;11.180;2024-01-10T06:37:30;-3.80;99.90
11284;DHT22;5698;47.332;11.180;2024-01-10T06:39:57;-3.80;99.90
11284;DHT22;5698;47.332;11.180;2024-01-10T06:42:24;-3.80;99.90
11284;DHT22;5698;47.332;11.180;2024-01-10T06:44:53;-3.80;99.90
11284;DHT22;5698;47.332;11.180;2024-01-10T06:47:20;-3.80;99.90
11284;DHT22;5698;47.332;11.180;2024-01-10T06:49:47;-3.80;99.90
11284;DHT22;5698;47.332;11.180;2024-01-10T06:52:14;-3.80;99.90
11284;DHT22;5698;47.332;11.180;2024-01-10T06:54:42;-3.80;99.90
11284;DHT22;5698;47.332;11.180;2024-01-10T06:57:09;-3.80;99.90
11284;DHT22;5698;47.332;11.180;2024-01-10T06:59:36;-3.80;99.90
11284;DHT22;5698;47.332;11.180;2024-01-10T07:02:05;-3.70;99.90
11284;DHT22;5698;47.332;11.180;2024-01-10T07:04:32;-3.70;99.90
11284;DHT22;5698;47.332;11.180;2024-01-10T07:06:59;-3.70;99.90
11284;DHT22;5698;47.332;11.180;2024-01-10T07:09:26;-3.60;99.90
11284;DHT22;5698;47.332;11.180;2024-01-10T07:11:53;-3.70;99.90
11284;DHT22;5698;47.332;11.180;2024-01-10T07:14:20;-3.70;99.90
11284;DHT22;5698;47.332;11.180;2024-01-10T07:16:47;-3.70;99.90
11284;DHT22;5698;47.332;11.180;2024-01-10T07:19:15;-3.70;99.90
11284;DHT22;5698;47.332;11.180;2024-01-10T07:21:43;-3.70;99.90
11284;DHT22;5698;47.332;11.180;2024-01-10T07:24:10;-3.70;99.90
11284;DHT22;5698;47.332;11.180;2024-01-10T07:26:37;-3.70;99.90
11284;DHT22;5698;47.332;11.180;2024-01-10T07:29:04;-3.80;99.90
11284;DHT22;5698;47.332;11.180;2024-01-10T07:31:34;-3.80;99.90
11284;DHT22;5698;47.332;11.180;2024-01-10T07:34:00;-3.80;99.90
11284;DHT22;5698;47.332;11.180;2024-01-10T07:36:31;-3.80;99.90
11284;DHT22;5698;47.332;11.180;2024-01-10T07:38:59;-3.80;99.90
11284;DHT22;5698;47.332;11.180;2024-01-10T07:41:26;-3.80;99.90
11284;DHT22;5698;47.332;11.180;2024-01-10T07:43:52;-3.80;99.90
11284;DHT22;5698;47.332;11.180;2024-01-10T07:46:19;-3.80;99.90
11284;DHT22;5698;47.332;11.180;2024-01-10T07:48:46;-3.70;99.90
11284;DHT22;5698;47.332;11.180;2024-01-10T07:51:13;-3.70;99.90
11284;DHT22;5698;47.332;11.180;2024-01-10T07:53:41;-3.60;99.90
11284;DHT22;5698;47.332;11.180;2024-01-10T07:56:08;-3.60;99.90
11284;DHT22;5698;47.332;11.180;2024-01-10T07:58:35;-3.60;99.90
11284;DHT22;5698;47.332;11.180;2024-01-10T08:01:02;-3.60;99.90
11284;DHT22;5698;47.332;11.180;2024-01-10T08:03:30;-3.60;99.90
11284;DHT22;5698;47.332;11.180;2024-01-10T08:05:57;-3.70;99.90
11284;DHT22;5698;47.332;11.180;2024-01-10T08:08:24;-3.70;99.90
11284;DHT22;5698;47.332;11.180;2024-01-10T08:10:52;-3.70;99.90
11284;DHT22;5698;47.332;11.180;2024-01-10T08:13:19;-3.60;99.90
11284;DHT22;5698;47.332;11.180;2024-01-10T08:15:46;-3.60;99.90
11284;DHT22;5698;47.332;11.180;2024-01-10T08:18:13;-3.60;99.90
11284;DHT22;5698;47.332;11.180;2024-01-10T08:20:40;-3.60;99.90
11284;DHT22;5698;47.332;11.180;2024-01-10T08:23:07;-3.60;99.90
11284;DHT22;5698;47.332;11.180;2024-01-10T08:25:35;-3.60;99.90
11284;DHT22;5698;47.332;11.180;2024-01-10T08:28:03;-3.60;99.90
11284;DHT22;5698;47.332;11.180;2024-01-10T08:30:30;-3.60;99.90
11284;DHT22;5698;47.332;11.180;2024-01-10T08:32:58;-3.50;99.90
11284;DHT22;5698;47.332;11.180;2024-01-10T08:35:25;-3.60;99.90
11284;DHT22;5698;47.332;11.180;2024-01-10T08:37:52;-3.50;99.90
11284;DHT22;5698;47.332;11.180;2024-01-10T08:40:19;-3.50;99.90
11284;DHT22;5698;47.332;11.180;2024-01-10T08:42:50;-3.50;99.90
11284;DHT22;5698;47.332;11.180;2024-01-10T08:45:19;-3.50;99.90
11284;DHT22;5698;47.332;11.180;2024-01-10T08:47:46;-3.50;99.90
11284;DHT22;5698;47.332;11.180;2024-01-10T08:50:13;-3.40;99.90
11284;DHT22;5698;47.332;11.180;2024-01-10T08:52:39;-3.40;99.90
11284;DHT22;5698;47.332;11.180;2024-01-10T08:55:07;-3.40;99.90
11284;DHT22;5698;47.332;11.180;2024-01-10T08:57:34;-3.30;99.90
11284;DHT22;5698;47.332;11.180;2024-01-10T09:00:00;-3.30;99.90
11284;DHT22;5698;47.332;11.180;2024-01-10T09:02:33;-3.20;99.90
11284;DHT22;5698;47.332;11.180;2024-01-10T09:05:02;-3.10;99.90
11284;DHT22;5698;47.332;11.180;2024-01-10T09:07:29;-3.10;99.90
11284;DHT22;5698;47.332;11.180;2024-01-10T09:09:57;-3.00;99.90
11284;DHT22;5698;47.332;11.180;2024-01-10T09:12:24;-3.00;99.90
11284;DHT22;5698;47.332;11.180;2024-01-10T09:14:51;-2.90;99.90
11284;DHT22;5698;47.332;11.180;2024-01-10T09:17:18;-2.80;99.90
11284;DHT22;5698;47.332;11.180;2024-01-10T09:19:46;-2.80;99.90
11284;DHT22;5698;47.332;11.180;2024-01-10T09:22:13;-2.80;99.90
11284;DHT22;5698;47.332;11.180;2024-01-10T09:24:40;-2.70;99.90
11284;DHT22;5698;47.332;11.180;2024-01-10T09:27:07;-2.60;99.90
11284;DHT22;5698;47.332;11.180;2024-01-10T09:29:34;-2.60;99.90
11284;DHT22;5698;47.332;11.180;2024-01-10T09:32:02;-2.50;99.90
11284;DHT22;5698;47.332;11.180;2024-01-10T09:34:29;-2.40;99.90
11284;DHT22;5698;47.332;11.180;2024-01-10T09:36:59;-2.30;99.90
11284;DHT22;5698;47.332;11.180;2024-01-10T09:39:27;-2.20;99.90
11284;DHT22;5698;47.332;11.180;2024-01-10T09:41:54;-2.10;99.90
11284;DHT22;5698;47.332;11.180;2024-01-10T09:44:21;-2.10;99.90
11284;DHT22;5698;47.332;11.180;2024-01-10T09:46:50;-2.00;99.90
11284;DHT22;5698;47.332;11.180;2024-01-10T09:49:18;-1.90;99.90
11284;DHT22;5698;47.332;11.180;2024-01-10T09:51:48;-1.90;99.90
11284;DHT22;5698;47.332;11.180;2024-01-10T09:54:18;-1.80;99.90
11284;DHT22;5698;47.332;11.180;2024-01-10T09:56:45;-1.80;99.90
11284;DHT22;5698;47.332;11.180;2024-01-10T09:59:14;-1.80;99.90
11284;DHT22;5698;47.332;11.180;2024-01-10T10:01:42;-1.70;99.90
11284;DHT22;5698;47.332;11.180;2024-01-10T10:04:12;-1.70;99.90
11284;DHT22;5698;47.332;11.180;2024-01-10T10:06:39;-1.60;99.90
11284;DHT22;5698;47.332;11.180;2024-01-10T10:09:07;-1.50;99.90
11284;DHT22;5698;47.332;11.180;2024-01-10T10:11:37;-1.30;99.90
11284;DHT22;5698;47.332;11.180;2024-01-10T10:14:17;-1.30;99.90
11284;DHT22;5698;47.332;11.180;2024-01-10T10:16:45;-1.30;99.90
11284;DHT22;5698;47.332;11.180;2024-01-10T10:19:11;-1.20;99.90
11284;DHT22;5698;47.332;11.180;2024-01-10T10:21:39;-1.20;99.90
11284;DHT22;5698;47.332;11.180;2024-01-10T10:24:07;-1.10;99.90
11284;DHT22;5698;47.332;11.180;2024-01-10T10:26:36;-1.00;99.90
11284;DHT22;5698;47.332;11.180;2024-01-10T10:29:03;-0.80;99.90
11284;DHT22;5698;47.332;11.180;2024-01-10T10:31:31;-0.70;99.90
11284;DHT22;5698;47.332;11.180;2024-01-10T10:33:59;-0.50;99.90
11284;DHT22;5698;47.332;11.180;2024-01-10T10:36:27;-0.40;99.90
11284;DHT22;5698;47.332;11.180;2024-01-10T10:38:59;-0.20;99.90
11284;DHT22;5698;47.332;11.180;2024-01-10T10:41:30;0.00;99.90
11284;DHT22;5698;47.332;11.180;2024-01-10T10:43:59;0.10;99.90
11284;DHT22;5698;47.332;11.180;2024-01-10T10:46:27;0.20;99.90
11284;DHT22;5698;47.332;11.180;2024-01-10T10:48:59;0.30;99.90
11284;DHT22;5698;47.332;11.180;2024-01-10T10:51:30;0.40;99.90
11284;DHT22;5698;47.332;11.180;2024-01-10T10:53:59;0.40;99.90
11284;DHT22;5698;47.332;11.180;2024-01-10T10:56:29;0.40;99.90
11284;DHT22;5698;47.332;11.180;2024-01-10T10:58:58;0.40;99.90
11284;DHT22;5698;47.332;11.180;2024-01-10T11:01:28;0.50;99.90
11284;DHT22;5698;47.332;11.180;2024-01-10T11:03:55;0.60;99.90
11284;DHT22;5698;47.332;11.180;2024-01-10T11:06:23;0.60;99.90
11284;DHT22;5698;47.332;11.180;2024-01-10T11:08:52;0.70;99.90
11284;DHT22;5698;47.332;11.180;2024-01-10T11:11:42;0.70;99.90
11284;DHT22;5698;47.332;11.180;2024-01-10T11:14:25;0.80;99.90
11284;DHT22;5698;47.332;11.180;2024-01-10T11:17:23;0.80;99.90
11284;DHT22;5698;47.332;11.180;2024-01-10T11:20:10;0.80;99.90
11284;DHT22;5698;47.332;11.180;2024-01-10T11:25:48;0.80;99.90
11284;DHT22;5698;47.332;11.180;2024-01-10T11:28:15;0.80;99.90
11284;DHT22;5698;47.332;11.180;2024-01-10T11:30:50;0.90;99.90
11284;DHT22;5698;47.332;11.180;2024-01-10T11:33:22;1.00;99.90
11284;DHT22;5698;47.332;11.180;2024-01-10T11:36:10;1.00;99.90
11284;DHT22;5698;47.332;11.180;2024-01-10T11:38:42;1.10;99.90
11284;DHT22;5698;47.332;11.180;2024-01-10T11:41:13;1.20;99.90
11284;DHT22;5698;47.332;11.180;2024-01-10T11:43:41;1.20;99.90
11284;DHT22;5698;47.332;11.180;2024-01-10T11:46:10;1.10;99.90
11284;DHT22;5698;47.332;11.180;2024-01-10T11:48:37;1.10;99.90
11284;DHT22;5698;47.332;11.180;2024-01-10T11:51:06;1.20;99.90
11284;DHT22;5698;47.332;11.180;2024-01-10T11:53:41;1.20;99.90
11284;DHT22;5698;47.332;11.180;2024-01-10T11:56:12;1.30;99.90
11284;DHT22;5698;47.332;11.180;2024-01-10T11:58:54;1.40;99.90
11284;DHT22;5698;47.332;11.180;2024-01-10T12:01:22;1.40;99.90
11284;DHT22;5698;47.332;11.180;2024-01-10T12:03:51;1.40;99.90
11284;DHT22;5698;47.332;11.180;2024-01-10T12:06:21;1.50;99.90
11284;DHT22;5698;47.332;11.180;2024-01-10T12:08:48;1.50;99.90
11284;DHT22;5698;47.332;11.180;2024-01-10T12:11:15;1.60;99.90
11284;DHT22;5698;47.332;11.180;2024-01-10T12:13:43;1.60;99.90
11284;DHT22;5698;47.332;11.180;2024-01-10T12:16:11;1.60;99.90
11284;DHT22;5698;47.332;11.180;2024-01-10T12:18:40;1.60;99.90
11284;DHT22;5698;47.332;11.180;2024-01-10T12:21:07;1.60;99.90
11284;DHT22;5698;47.332;11.180;2024-01-10T12:23:36;1.50;99.90
11284;DHT22;5698;47.332;11.180;2024-01-10T12:26:04;1.60;99.90
11284;DHT22;5698;47.332;11.180;2024-01-10T12:28:33;1.50;99.90
11284;DHT22;5698;47.332;11.180;2024-01-10T12:31:01;1.60;99.90
11284;DHT22;5698;47.332;11.180;2024-01-10T12:33:28;1.60;99.90
11284;DHT22;5698;47.332;11.180;2024-01-10T12:36:07;1.60;99.90
11284;DHT22;5698;47.332;11.180;2024-01-10T12:38:35;1.60;99.90
11284;DHT22;5698;47.332;11.180;2024-01-10T12:41:03;1.50;99.90
11284;DHT22;5698;47.332;11.180;2024-01-10T12:43:31;1.40;99.90
11284;DHT22;5698;47.332;11.180;2024-01-10T12:46:05;1.40;99.90
11284;DHT22;5698;47.332;11.180;2024-01-10T12:48:32;1.40;99.90
11284;DHT22;5698;47.332;11.180;2024-01-10T12:51:02;1.30;99.90
11284;DHT22;5698;47.332;11.180;2024-01-10T12:53:36;1.20;99.90
11284;DHT22;5698;47.332;11.180;2024-01-10T12:56:03;1.10;99.90
11284;DHT22;5698;47.332;11.180;2024-01-10T12:58:31;1.00;99.90
11284;DHT22;5698;47.332;11.180;2024-01-10T13:00:59;0.90;99.90
11284;DHT22;5698;47.332;11.180;2024-01-10T13:03:26;0.90;99.90
11284;DHT22;5698;47.332;11.180;2024-01-10T13:05:53;0.90;99.90
11284;DHT22;5698;47.332;11.180;2024-01-10T13:08:20;0.80;99.90
11284;DHT22;5698;47.332;11.180;2024-01-10T13:10:48;0.80;99.90
11284;DHT22;5698;47.332;11.180;2024-01-10T13:13:15;0.80;99.90
11284;DHT22;5698;47.332;11.180;2024-01-10T13:15:43;0.80;99.90
11284;DHT22;5698;47.332;11.180;2024-01-10T13:18:11;0.80;99.90
11284;DHT22;5698;47.332;11.180;2024-01-10T13:20:38;0.70;99.90
11284;DHT22;5698;47.332;11.180;2024-01-10T13:23:06;0.70;99.90
11284;DHT22;5698;47.332;11.180;2024-01-10T13:25:33;0.60;99.90
11284;DHT22;5698;47.332;11.180;2024-01-10T13:28:02;0.60;99.90
11284;DHT22;5698;47.332;11.180;2024-01-10T13:30:30;0.60;99.90
11284;DHT22;5698;47.332;11.180;2024-01-10T13:32:57;0.60;99.90
11284;DHT22;5698;47.332;11.180;2024-01-10T13:35:24;0.60;99.90
11284;DHT22;5698;47.332;11.180;2024-01-10T13:37:51;0.60;99.90
11284;DHT22;5698;47.332;11.180;2024-01-10T13:40:18;0.60;99.90
11284;DHT22;5698;47.332;11.180;2024-01-10T13:42:49;0.70;99.90
11284;DHT22;5698;47.332;11.180;2024-01-10T13:45:18;0.70;99.90
11284;DHT22;5698;47.332;11.180;2024-01-10T13:47:46;0.70;99.90
11284;DHT22;5698;47.332;11.180;2024-01-10T13:50:14;0.70;99.90
11284;DHT22;5698;47.332;11.180;2024-01-10T13:52:41;0.80;99.90
11284;DHT22;5698;47.332;11.180;2024-01-10T13:55:09;0.70;99.90
11284;DHT22;5698;47.332;11.180;2024-01-10T13:57:36;0.70;99.90
11284;DHT22;5698;47.332;11.180;2024-01-10T14:00:04;0.70;99.90
11284;DHT22;5698;47.332;11.180;2024-01-10T14:02:34;0.70;99.90
11284;DHT22;5698;47.332;11.180;2024-01-10T14:05:02;0.70;99.90
11284;DHT22;5698;47.332;11.180;2024-01-10T14:07:31;0.70;99.90
11284;DHT22;5698;47.332;11.180;2024-01-10T14:09:59;0.60;99.90
11284;DHT22;5698;47.332;11.180;2024-01-10T14:12:27;0.60;99.90
11284;DHT22;5698;47.332;11.180;2024-01-10T14:14:54;0.60;99.90
11284;DHT22;5698;47.332;11.180;2024-01-10T14:17:22;0.60;99.90
11284;DHT22;5698;47.332;11.180;2024-01-10T14:19:51;0.50;99.90
11284;DHT22;5698;47.332;11.180;2024-01-10T14:22:18;0.40;99.90
11284;DHT22;5698;47.332;11.180;2024-01-10T14:24:45;0.40;99.90
11284;DHT22;5698;47.332;11.180;2024-01-10T14:27:12;0.40;99.90
11284;DHT22;5698;47.332;11.180;2024-01-10T14:29:39;0.40;99.90
11284;DHT22;5698;47.332;11.180;2024-01-10T14:32:06;0.40;99.90
11284;DHT22;5698;47.332;11.180;2024-01-10T14:34:33;0.40;99.90
11284;DHT22;5698;47.332;11.180;2024-01-10T14:37:02;0.40;99.90
11284;DHT22;5698;47.332;11.180;2024-01-10T14:39:30;0.40;99.90
11284;DHT22;5698;47.332;11.180;2024-01-10T14:41:57;0.30;99.90
11284;DHT22;5698;47.332;11.180;2024-01-10T14:44:23;0.30;99.90
11284;DHT22;5698;47.332;11.180;2024-01-10T14:46:50;0.10;99.90
11284;DHT22;5698;47.332;11.180;2024-01-10T14:49:17;0.00;99.90
11284;DHT22;5698;47.332;11.180;2024-01-10T14:51:44;-0.10;99.90
11284;DHT22;5698;47.332;11.180;2024-01-10T14:54:14;-0.10;99.90
11284;DHT22;5698;47.332;11.180;2024-01-10T14:56:40;-0.20;99.90
11284;DHT22;5698;47.332;11.180;2024-01-10T14:59:10;-0.10;99.90
11284;DHT22;5698;47.332;11.180;2024-01-10T15:01:37;-0.20;99.90
11284;DHT22;5698;47.332;11.180;2024-01-10T15:04:04;-0.30;99.90
11284;DHT22;5698;47.332;11.180;2024-01-10T15:06:31;-0.30;99.90
11284;DHT22;5698;47.332;11.180;2024-01-10T15:08:58;-0.30;99.90
11284;DHT22;5698;47.332;11.180;2024-01-10T15:11:26;-0.40;99.90
11284;DHT22;5698;47.332;11.180;2024-01-10T15:13:53;-0.40;99.90
11284;DHT22;5698;47.332;11.180;2024-01-10T15:16:20;-0.50;99.90
11284;DHT22;5698;47.332;11.180;2024-01-10T15:18:47;-0.40;99.90
11284;DHT22;5698;47.332;11.180;2024-01-10T15:21:14;-0.40;99.90
11284;DHT22;5698;47.332;11.180;2024-01-10T15:23:41;-0.50;99.90
11284;DHT22;5698;47.332;11.180;2024-01-10T15:26:08;-0.50;99.90
11284;DHT22;5698;47.332;11.180;2024-01-10T15:28:36;-0.60;99.90
11284;DHT22;5698;47.332;11.180;2024-01-10T15:31:04;-0.60;99.90
11284;DHT22;5698;47.332;11.180;2024-01-10T15:33:31;-0.60;99.90
11284;DHT22;5698;47.332;11.180;2024-01-10T15:35:57;-0.60;99.90
11284;DHT22;5698;47.332;11.180;2024-01-10T15:38:24;-0.70;99.90
11284;DHT22;5698;47.332;11.180;2024-01-10T15:40:51;-0.70;99.90
11284;DHT22;5698;47.332;11.180;2024-01-10T15:43:19;-0.70;99.90